createdAt,value
2022-08-21T00:01:50.168Z,18.9
2022-08-21T00:15:50.169Z,18.6
2022-08-21T00:29:50.151Z,18.3
2022-08-21T00:43:50.256Z,18.5
2022-08-21T00:57:50.362Z,18.3
2022-08-21T01:11:50.381Z,17.9
2022-08-21T01:25:50.382Z,17.6
2022-08-21T01:39:50.464Z,17.6
2022-08-21T01:53:50.380Z,17.5
2022-08-21T02:07:50.392Z,17.7
2022-08-21T02:21:50.388Z,17.8
2022-08-21T02:35:50.460Z,17.5
2022-08-21T02:49:50.452Z,17.4
2022-08-21T03:03:50.449Z,17.0
2022-08-21T03:17:50.493Z,16.7
2022-08-21T03:31:50.445Z,16.8
2022-08-21T03:45:50.511Z,16.6
2022-08-21T03:59:50.742Z,16.4
2022-08-21T04:14:50.583Z,16.7
2022-08-21T04:29:50.624Z,16.8
2022-08-21T04:44:50.691Z,16.7
2022-08-21T04:59:50.684Z,16.5
2022-08-21T05:14:50.794Z,16.8
2022-08-21T05:29:50.789Z,18.3
2022-08-21T05:44:50.811Z,18.8
2022-08-21T05:59:50.851Z,18.9
2022-08-21T06:14:50.874Z,19.5
2022-08-21T06:29:50.895Z,19.6
2022-08-21T06:44:50.903Z,21.0
2022-08-21T06:59:50.902Z,26.2
2022-08-21T07:14:50.943Z,30.6
2022-08-21T07:29:50.904Z,27.6
2022-08-21T07:44:51.460Z,27.8
2022-08-21T07:59:51.414Z,29.6
2022-08-21T08:14:51.630Z,31.1
2022-08-21T08:30:51.652Z,31.4
2022-08-21T08:45:51.646Z,31.2
2022-08-21T09:00:51.764Z,31.1
2022-08-21T09:15:51.730Z,31.9
2022-08-21T09:30:51.742Z,32.1
2022-08-21T09:45:51.774Z,32.9
2022-08-21T10:01:51.778Z,32.3
2022-08-21T10:16:51.763Z,32.5
2022-08-21T10:32:51.900Z,32.2
2022-08-21T10:48:51.829Z,33.0
2022-08-21T11:03:51.823Z,33.8
2022-08-21T11:19:51.850Z,33.4
2022-08-21T11:34:51.840Z,33.5
2022-08-21T11:50:51.896Z,33.1
2022-08-21T12:05:51.868Z,33.3
2022-08-21T12:20:51.870Z,34.0
2022-08-21T12:35:51.878Z,34.1
2022-08-21T12:50:51.908Z,34.8
2022-08-21T13:05:52.124Z,33.9
2022-08-21T13:20:51.999Z,34.9
2022-08-21T13:35:52.021Z,35.3
2022-08-21T13:50:52.020Z,34.9
2022-08-21T14:05:52.023Z,35.2
2022-08-21T14:20:52.072Z,35.7
2022-08-21T14:35:52.091Z,35.3
2022-08-21T14:50:52.523Z,35.4
2022-08-21T15:05:52.159Z,35.8
2022-08-21T15:20:52.182Z,35.3
2022-08-21T15:35:52.213Z,34.2
2022-08-21T15:50:52.398Z,36.8
2022-08-21T16:05:52.302Z,35.3
2022-08-21T16:20:52.311Z,34.4
2022-08-21T16:35:52.335Z,34.9
2022-08-21T16:50:52.311Z,33.4
2022-08-21T17:05:52.307Z,30.0
2022-08-21T17:20:52.647Z,28.2
2022-08-21T17:35:52.682Z,27.0
2022-08-21T17:50:52.706Z,26.3
2022-08-21T18:05:52.722Z,25.0
2022-08-21T18:20:52.835Z,24.2
2022-08-21T18:35:52.887Z,24.0
2022-08-21T18:49:52.855Z,23.6
2022-08-21T19:03:52.857Z,23.0
2022-08-21T19:17:52.915Z,23.1
2022-08-21T19:33:56.127Z,23.2
2022-08-21T19:47:53.087Z,23.3
2022-08-21T20:01:52.979Z,23.5
2022-08-21T20:15:52.985Z,23.8
2022-08-21T20:29:53.013Z,20.3
2022-08-21T20:43:52.991Z,19.8
2022-08-21T20:57:53.146Z,19.1
2022-08-21T21:11:53.041Z,19.0
2022-08-21T21:25:53.701Z,18.8
2022-08-21T21:39:53.129Z,18.6
2022-08-21T21:53:53.062Z,18.6
2022-08-21T22:07:53.043Z,18.5
2022-08-21T22:21:53.023Z,18.5
2022-08-21T22:35:53.046Z,18.4
2022-08-21T22:49:53.050Z,18.5
2022-08-21T23:03:53.037Z,18.6
2022-08-21T23:17:53.051Z,18.5
2022-08-21T23:31:53.051Z,18.7
2022-08-21T23:45:53.053Z,18.6
2022-08-21T23:59:53.053Z,18.3
